createdAt,value
2022-10-17T00:00:55.747Z,1019.3
2022-10-17T00:02:11.940Z,1019.3
2022-10-17T00:03:28.119Z,1019.4
2022-10-17T00:04:44.316Z,1019.4
2022-10-17T00:06:00.116Z,1019.4
2022-10-17T00:07:15.705Z,1019.4
2022-10-17T00:08:31.904Z,1019.4
2022-10-17T00:09:48.079Z,1019.4
2022-10-17T00:11:04.269Z,1019.4
2022-10-17T00:12:20.070Z,1019.4
2022-10-17T00:13:36.264Z,1019.4
2022-10-17T00:14:52.450Z,1019.5
2022-10-17T00:16:08.634Z,1019.4
2022-10-17T00:17:25.228Z,1019.4
2022-10-17T00:18:41.411Z,1019.4
2022-10-17T00:19:57.598Z,1019.4
2022-10-17T00:21:13.395Z,1019.4
2022-10-17T00:22:29.967Z,1019.4
2022-10-17T00:23:44.789Z,1019.3
2022-10-17T00:25:01.370Z,1019.3
2022-10-17T00:26:17.555Z,1019.3
2022-10-17T00:27:33.751Z,1019.2
2022-10-17T00:28:49.543Z,1019.1
2022-10-17T00:30:06.115Z,1019.2
2022-10-17T00:31:22.324Z,1019.2
2022-10-17T00:32:38.507Z,1019.2
2022-10-17T00:33:54.691Z,1019.2
2022-10-17T00:35:10.874Z,1019.3
2022-10-17T00:36:26.675Z,1019.3
2022-10-17T00:37:42.854Z,1019.4
2022-10-17T00:38:59.037Z,1019.4
2022-10-17T00:40:14.654Z,1019.4
2022-10-17T00:41:30.835Z,1019.4
2022-10-17T00:42:47.023Z,1019.4
2022-10-17T00:44:02.816Z,1019.3
2022-10-17T00:45:18.998Z,1019.3
2022-10-17T00:46:35.604Z,1019.2
2022-10-17T00:47:51.776Z,1019.2
2022-10-17T00:49:07.975Z,1019.2
2022-10-17T00:50:23.764Z,1019.2
2022-10-17T00:51:39.949Z,1019.2
2022-10-17T00:52:56.533Z,1019.3
2022-10-17T00:54:12.735Z,1019.3
2022-10-17T00:55:28.942Z,1019.3
2022-10-17T00:56:43.718Z,1019.3
2022-10-17T00:58:00.303Z,1019.3
2022-10-17T00:59:16.085Z,1019.2
2022-10-17T01:00:32.679Z,1019.2
2022-10-17T01:01:48.870Z,1019.3
2022-10-17T01:03:04.669Z,1019.4
2022-10-17T01:04:21.252Z,1019.4
2022-10-17T01:05:37.452Z,1019.4
2022-10-17T01:06:53.216Z,1019.5
2022-10-17T01:08:09.817Z,1019.4
2022-10-17T01:09:26.004Z,1019.4
2022-10-17T01:10:42.198Z,1019.4
2022-10-17T01:11:57.974Z,1019.5
2022-10-17T01:13:13.601Z,1019.4
2022-10-17T01:14:29.788Z,1019.4
2022-10-17T01:15:45.964Z,1019.4
2022-10-17T01:17:01.746Z,1019.3
2022-10-17T01:18:17.930Z,1019.3
2022-10-17T01:19:34.128Z,1019.3
2022-10-17T01:20:50.723Z,1019.2
2022-10-17T01:22:06.910Z,1019.3
2022-10-17T01:23:23.113Z,1019.2
2022-10-17T01:24:38.880Z,1019.2
2022-10-17T01:25:55.478Z,1019.2
2022-10-17T01:27:11.678Z,1019.1
2022-10-17T01:28:27.438Z,1019.2
2022-10-17T01:29:43.058Z,1019.2
2022-10-17T01:30:59.243Z,1019.1
2022-10-17T01:32:15.433Z,1019.1
2022-10-17T01:33:31.638Z,1019.1
2022-10-17T01:34:47.812Z,1019.1
2022-10-17T01:36:04.006Z,1019.1
2022-10-17T01:37:20.191Z,1019.1
2022-10-17T01:38:35.975Z,1019
2022-10-17T01:39:52.578Z,1019
2022-10-17T01:41:08.343Z,1019
2022-10-17T01:42:24.944Z,1019
2022-10-17T01:43:41.137Z,1019
2022-10-17T01:44:56.929Z,1019
2022-10-17T01:46:12.132Z,1019.1
2022-10-17T01:47:28.718Z,1019.1
2022-10-17T01:48:44.914Z,1019
2022-10-17T01:50:01.103Z,1019
2022-10-17T01:51:17.300Z,1019
2022-10-17T01:52:33.490Z,1019
2022-10-17T01:53:49.676Z,1019
2022-10-17T01:55:05.866Z,1019
2022-10-17T01:56:21.624Z,1019
2022-10-17T01:57:37.817Z,1019
2022-10-17T01:58:54.430Z,1019.1
2022-10-17T02:00:10.207Z,1019.1
2022-10-17T02:01:26.397Z,1019.1
2022-10-17T02:02:42.018Z,1019.1
2022-10-17T02:03:57.792Z,1019.1
2022-10-17T02:05:14.396Z,1019
2022-10-17T02:06:30.153Z,1019
2022-10-17T02:07:46.773Z,1019
2022-10-17T02:09:02.956Z,1019.1
2022-10-17T02:10:19.146Z,1019
2022-10-17T02:11:35.333Z,1019.1
2022-10-17T02:12:51.107Z,1019.1
2022-10-17T02:14:07.705Z,1019.1
2022-10-17T02:15:23.483Z,1019.1
2022-10-17T02:16:40.095Z,1019.1
2022-10-17T02:17:55.849Z,1019.1
2022-10-17T02:19:11.481Z,1019.1
2022-10-17T02:20:27.675Z,1019.1
2022-10-17T02:21:43.856Z,1019.1
2022-10-17T02:22:59.637Z,1019
2022-10-17T02:24:16.239Z,1019.1
2022-10-17T02:25:32.431Z,1019
2022-10-17T02:26:47.646Z,1019.1
2022-10-17T02:28:03.846Z,1019.1
2022-10-17T02:29:20.027Z,1019.1
2022-10-17T02:30:35.794Z,1019.1
2022-10-17T02:31:52.394Z,1019
2022-10-17T02:33:08.579Z,1019
2022-10-17T02:34:24.000Z,1019
2022-10-17T02:35:40.967Z,1018.9
2022-10-17T02:36:57.158Z,1018.9
2022-10-17T02:38:13.347Z,1018.9
2022-10-17T02:39:29.527Z,1018.9
2022-10-17T02:40:45.726Z,1018.9
2022-10-17T02:42:01.476Z,1018.9
2022-10-17T02:43:16.685Z,1018.9
2022-10-17T02:44:32.885Z,1018.9
2022-10-17T02:45:49.501Z,1018.9
2022-10-17T02:47:05.263Z,1018.9
2022-10-17T02:48:21.872Z,1018.9
2022-10-17T02:49:38.057Z,1018.9
2022-10-17T02:50:53.815Z,1018.9
2022-10-17T02:52:10.452Z,1018.9
2022-10-17T02:53:26.208Z,1018.9
2022-10-17T02:54:42.821Z,1018.9
2022-10-17T02:55:58.575Z,1018.8
2022-10-17T02:57:14.779Z,1018.8
2022-10-17T02:58:31.382Z,1018.8
2022-10-17T02:59:46.593Z,1018.8
2022-10-17T03:01:02.356Z,1018.9
2022-10-17T03:02:18.966Z,1018.9
2022-10-17T03:03:34.728Z,1018.9
2022-10-17T03:04:51.348Z,1018.9
2022-10-17T03:06:07.544Z,1018.9
2022-10-17T03:07:23.724Z,1018.9
2022-10-17T03:08:39.484Z,1018.9
2022-10-17T03:09:56.103Z,1018.8
2022-10-17T03:11:11.873Z,1018.8
2022-10-17T03:12:28.478Z,1018.9
2022-10-17T03:13:44.680Z,1018.9
2022-10-17T03:15:00.871Z,1018.9
2022-10-17T03:16:15.631Z,1018.8
2022-10-17T03:17:32.262Z,1018.9
2022-10-17T03:18:48.443Z,1018.8
2022-10-17T03:20:04.628Z,1018.8
2022-10-17T03:21:20.825Z,1018.9
2022-10-17T03:22:37.007Z,1018.9
2022-10-17T03:23:53.203Z,1018.9
2022-10-17T03:25:09.384Z,1018.9
2022-10-17T03:26:25.586Z,1018.9
2022-10-17T03:27:41.325Z,1018.9
2022-10-17T03:28:57.527Z,1018.9
2022-10-17T03:30:14.152Z,1018.9
2022-10-17T03:31:30.342Z,1018.8
2022-10-17T03:32:45.536Z,1018.9
2022-10-17T03:34:01.734Z,1018.8
2022-10-17T03:35:17.476Z,1018.8
2022-10-17T03:36:33.665Z,1018.8
2022-10-17T03:37:49.867Z,1018.8
2022-10-17T03:39:06.061Z,1018.7
2022-10-17T03:40:22.486Z,1018.7
2022-10-17T03:41:38.668Z,1018.8
2022-10-17T03:42:54.860Z,1018.7
2022-10-17T03:44:11.064Z,1018.8
2022-10-17T03:45:27.247Z,1018.8
2022-10-17T03:46:43.437Z,1018.8
2022-10-17T03:47:59.363Z,1018.8
2022-10-17T03:49:14.828Z,1018.8
2022-10-17T03:50:30.757Z,1018.7
2022-10-17T03:51:47.214Z,1018.8
2022-10-17T03:53:03.392Z,1018.7
2022-10-17T03:54:19.339Z,1018.7
2022-10-17T03:55:35.520Z,1018.8
2022-10-17T03:56:51.710Z,1018.7
2022-10-17T03:58:08.147Z,1018.8
2022-10-17T03:59:24.332Z,1018.7
2022-10-17T04:00:40.538Z,1018.8
2022-10-17T04:01:56.475Z,1018.8
2022-10-17T04:03:12.916Z,1018.7
2022-10-17T04:04:28.838Z,1018.8
2022-10-17T04:05:44.307Z,1018.8
2022-10-17T04:07:00.486Z,1018.8
2022-10-17T04:08:16.437Z,1018.8
2022-10-17T04:09:32.608Z,1018.8
2022-10-17T04:10:49.066Z,1018.7
2022-10-17T04:12:05.250Z,1018.7
2022-10-17T04:13:21.190Z,1018.7
2022-10-17T04:14:37.635Z,1018.7
2022-10-17T04:15:53.564Z,1018.6
2022-10-17T04:17:09.995Z,1018.6
2022-10-17T04:18:26.193Z,1018.6
2022-10-17T04:19:42.136Z,1018.6
2022-10-17T04:20:58.318Z,1018.6
2022-10-17T04:22:13.786Z,1018.6
2022-10-17T04:23:29.968Z,1018.6
2022-10-17T04:24:45.892Z,1018.5
2022-10-17T04:26:02.341Z,1018.5
2022-10-17T04:27:18.543Z,1018.5
2022-10-17T04:28:34.716Z,1018.5
2022-10-17T04:29:50.912Z,1018.6
2022-10-17T04:31:07.101Z,1018.6
2022-10-17T04:32:23.040Z,1018.6
2022-10-17T04:33:39.482Z,1018.6
2022-10-17T04:34:55.676Z,1018.6
2022-10-17T04:36:11.860Z,1018.6
2022-10-17T04:37:27.776Z,1018.6
2022-10-17T04:38:42.982Z,1018.6
2022-10-17T04:39:59.170Z,1018.6
2022-10-17T04:41:15.372Z,1018.6
2022-10-17T04:42:31.816Z,1018.6
2022-10-17T04:43:48.003Z,1018.6
2022-10-17T04:45:04.206Z,1018.6
2022-10-17T04:46:20.382Z,1018.5
2022-10-17T04:47:36.314Z,1018.6
2022-10-17T04:48:52.757Z,1018.6
2022-10-17T04:50:08.955Z,1018.6
2022-10-17T04:51:25.138Z,1018.6
2022-10-17T04:52:41.067Z,1018.6
2022-10-17T04:53:57.518Z,1018.6
2022-10-17T04:55:12.468Z,1018.6
2022-10-17T04:56:28.907Z,1018.6
2022-10-17T04:57:45.098Z,1018.6
2022-10-17T04:59:01.291Z,1018.6
2022-10-17T05:00:17.476Z,1018.6
2022-10-17T05:01:33.400Z,1018.7
2022-10-17T05:02:49.590Z,1018.6
2022-10-17T05:04:05.778Z,1018.6
2022-10-17T05:05:22.244Z,1018.6
2022-10-17T05:06:38.419Z,1018.6
2022-10-17T05:07:54.619Z,1018.6
2022-10-17T05:09:10.802Z,1018.6
2022-10-17T05:10:26.982Z,1018.6
2022-10-17T05:11:42.201Z,1018.6
2022-10-17T05:12:58.122Z,1018.6
2022-10-17T05:14:14.577Z,1018.7
2022-10-17T05:15:30.772Z,1018.7
2022-10-17T05:16:46.958Z,1018.7
2022-10-17T05:18:03.152Z,1018.6
2022-10-17T05:19:19.322Z,1018.6
2022-10-17T05:20:35.247Z,1018.7
2022-10-17T05:21:51.700Z,1018.7
2022-10-17T05:23:07.622Z,1018.6
2022-10-17T05:24:23.805Z,1018.6
2022-10-17T05:25:40.004Z,1018.6
2022-10-17T05:26:56.186Z,1018.7
2022-10-17T05:28:11.665Z,1018.7
2022-10-17T05:29:27.581Z,1018.7
2022-10-17T05:30:44.044Z,1018.7
2022-10-17T05:32:00.233Z,1018.7
2022-10-17T05:33:16.155Z,1018.7
2022-10-17T05:34:32.615Z,1018.7
2022-10-17T05:35:48.801Z,1018.7
2022-10-17T05:37:05.000Z,1018.7
2022-10-17T05:38:20.901Z,1018.6
2022-10-17T05:39:37.375Z,1018.6
2022-10-17T05:40:53.286Z,1018.6
2022-10-17T05:42:09.747Z,1018.6
2022-10-17T05:43:25.937Z,1018.6
2022-10-17T05:44:41.151Z,1018.6
2022-10-17T05:45:57.324Z,1018.6
2022-10-17T05:47:13.521Z,1018.6
2022-10-17T05:48:29.438Z,1018.6
2022-10-17T05:49:45.907Z,1018.6
2022-10-17T05:51:02.088Z,1018.6
2022-10-17T05:52:18.271Z,1018.6
2022-10-17T05:53:34.463Z,1018.7
2022-10-17T05:54:50.663Z,1018.7
2022-10-17T05:56:06.841Z,1018.7
2022-10-17T05:57:23.023Z,1018.7
2022-10-17T05:58:39.224Z,1018.8
2022-10-17T05:59:55.408Z,1018.8
2022-10-17T06:01:10.614Z,1018.8
2022-10-17T06:02:26.798Z,1018.8
2022-10-17T06:03:42.975Z,1018.8
2022-10-17T06:04:59.184Z,1018.8
2022-10-17T06:06:15.373Z,1018.8
2022-10-17T06:07:31.555Z,1018.8
2022-10-17T06:08:47.752Z,1018.8
2022-10-17T06:10:03.932Z,1018.8
2022-10-17T06:11:20.136Z,1018.9
2022-10-17T06:12:36.303Z,1018.9
2022-10-17T06:13:52.508Z,1018.9
2022-10-17T06:15:08.696Z,1018.9
2022-10-17T06:16:24.880Z,1018.9
2022-10-17T06:17:40.095Z,1018.9
2022-10-17T06:18:56.254Z,1019
2022-10-17T06:20:12.459Z,1019
2022-10-17T06:21:28.652Z,1019
2022-10-17T06:22:44.820Z,1019
2022-10-17T06:24:01.041Z,1019.1
2022-10-17T06:25:17.224Z,1019.1
2022-10-17T06:26:33.388Z,1019.1
2022-10-17T06:27:49.600Z,1019.1
2022-10-17T06:29:05.785Z,1019.2
2022-10-17T06:30:21.987Z,1019.1
2022-10-17T06:31:38.159Z,1019.1
2022-10-17T06:32:54.348Z,1019.1
2022-10-17T06:34:09.549Z,1019.1
2022-10-17T06:35:25.756Z,1019.1
2022-10-17T06:36:41.915Z,1019.1
2022-10-17T06:37:58.120Z,1019.2
2022-10-17T06:39:14.312Z,1019.2
2022-10-17T06:40:30.505Z,1019.2
2022-10-17T06:41:45.698Z,1019.3
2022-10-17T06:43:01.906Z,1019.2
2022-10-17T06:44:18.107Z,1019.2
2022-10-17T06:45:34.264Z,1019.2
2022-10-17T06:46:50.458Z,1019.2
2022-10-17T06:48:06.000Z,1019.2
2022-10-17T06:49:22.847Z,1019.2
2022-10-17T06:50:39.042Z,1019.2
2022-10-17T06:51:55.240Z,1019.3
2022-10-17T06:53:11.402Z,1019.3
2022-10-17T06:54:27.602Z,1019.2
2022-10-17T06:55:43.800Z,1019.3
2022-10-17T06:56:59.972Z,1019.3
2022-10-17T06:58:15.169Z,1019.3
2022-10-17T06:59:31.366Z,1019.3
2022-10-17T07:00:47.560Z,1019.2
2022-10-17T07:02:03.751Z,1019.3
2022-10-17T07:03:19.941Z,1019.3
2022-10-17T07:04:36.119Z,1019.3
2022-10-17T07:05:52.326Z,1019.3
2022-10-17T07:07:08.521Z,1019.3
2022-10-17T07:08:24.703Z,1019.3
2022-10-17T07:09:40.900Z,1019.3
2022-10-17T07:10:57.048Z,1019.3
2022-10-17T07:12:13.277Z,1019.3
2022-10-17T07:13:29.457Z,1019.3
2022-10-17T07:14:44.674Z,1019.3
2022-10-17T07:16:00.848Z,1019.3
2022-10-17T07:17:17.047Z,1019.3
2022-10-17T07:18:33.224Z,1019.3
2022-10-17T07:19:49.397Z,1019.3
2022-10-17T07:21:05.615Z,1019.4
2022-10-17T07:22:21.805Z,1019.4
2022-10-17T07:23:37.968Z,1019.4
2022-10-17T07:24:54.172Z,1019.4
2022-10-17T07:26:10.362Z,1019.4
2022-10-17T07:27:26.535Z,1019.5
2022-10-17T07:28:42.749Z,1019.4
2022-10-17T07:29:58.937Z,1019.4
2022-10-17T07:31:14.139Z,1019.4
2022-10-17T07:32:30.319Z,1019.4
2022-10-17T07:33:46.516Z,1019.5
2022-10-17T07:35:02.704Z,1019.4
2022-10-17T07:36:18.904Z,1019.5
2022-10-17T07:37:35.045Z,1019.5
2022-10-17T07:38:51.242Z,1019.4
2022-10-17T07:40:07.422Z,1019.5
2022-10-17T07:41:23.646Z,1019.5
2022-10-17T07:42:39.797Z,1019.5
2022-10-17T07:43:56.022Z,1019.5
2022-10-17T07:45:12.209Z,1019.5
2022-10-17T07:46:28.380Z,1019.5
2022-10-17T07:47:43.573Z,1019.5
2022-10-17T07:48:59.761Z,1019.5
2022-10-17T07:50:15.992Z,1019.5
2022-10-17T07:51:32.186Z,1019.5
2022-10-17T07:52:48.377Z,1019.5
2022-10-17T07:54:04.556Z,1019.5
2022-10-17T07:55:20.750Z,1019.5
2022-10-17T07:56:36.938Z,1019.5
2022-10-17T07:59:09.320Z,1019.5
2022-10-17T08:00:25.496Z,1019.5
2022-10-17T08:01:41.662Z,1019.5
2022-10-17T08:02:57.833Z,1019.5
2022-10-17T08:04:13.080Z,1019.5
2022-10-17T08:05:29.235Z,1019.5
2022-10-17T08:06:45.465Z,1019.5
2022-10-17T08:08:01.624Z,1019.5
2022-10-17T08:09:17.835Z,1019.5
2022-10-17T08:10:34.024Z,1019.5
2022-10-17T08:11:50.223Z,1019.5
2022-10-17T08:13:06.408Z,1019.5
2022-10-17T08:14:22.564Z,1019.5
2022-10-17T08:15:38.790Z,1019.5
2022-10-17T08:16:54.979Z,1019.5
2022-10-17T08:18:11.154Z,1019.5
2022-10-17T08:19:27.343Z,1019.6
2022-10-17T08:20:42.515Z,1019.5
2022-10-17T08:21:58.748Z,1019.6
2022-10-17T08:23:14.946Z,1019.6
2022-10-17T08:24:31.119Z,1019.5
2022-10-17T08:25:47.275Z,1019.5
2022-10-17T08:27:03.450Z,1019.5
2022-10-17T08:28:19.640Z,1019.5
2022-10-17T08:29:35.889Z,1019.5
2022-10-17T08:30:52.071Z,1019.5
2022-10-17T08:32:08.206Z,1019.5
2022-10-17T08:33:24.450Z,1019.5
2022-10-17T08:34:40.592Z,1019.5
2022-10-17T08:35:56.791Z,1019.5
2022-10-17T08:37:12.041Z,1019.5
2022-10-17T08:38:28.221Z,1019.4
2022-10-17T08:39:44.364Z,1019.5
2022-10-17T08:41:00.602Z,1019.4
2022-10-17T08:42:16.744Z,1019.4
2022-10-17T08:43:32.972Z,1019.5
2022-10-17T08:44:49.166Z,1019.4
2022-10-17T08:46:05.351Z,1019.3
2022-10-17T08:47:21.546Z,1019.4
2022-10-17T08:48:37.739Z,1019.3
2022-10-17T08:49:53.930Z,1019.3
2022-10-17T08:51:10.062Z,1019.3
2022-10-17T08:52:26.242Z,1019.3
2022-10-17T08:53:41.503Z,1019.3
2022-10-17T08:54:57.704Z,1019.2
2022-10-17T08:56:13.885Z,1019.2
2022-10-17T08:57:30.083Z,1019.2
2022-10-17T08:58:46.217Z,1019.2
2022-10-17T09:00:02.392Z,1019.2
2022-10-17T09:01:18.597Z,1019.3
2022-10-17T09:02:34.780Z,1019.3
2022-10-17T09:03:50.976Z,1019.3
2022-10-17T09:05:07.159Z,1019.3
2022-10-17T09:06:23.343Z,1019.3
2022-10-17T09:07:39.587Z,1019.3
2022-10-17T09:08:55.770Z,1019.4
2022-10-17T09:10:10.971Z,1019.3
2022-10-17T09:11:27.125Z,1019.3
2022-10-17T09:12:43.298Z,1019.3
2022-10-17T09:13:59.491Z,1019.2
2022-10-17T09:15:15.745Z,1019.3
2022-10-17T09:16:31.929Z,1019.4
2022-10-17T09:17:48.059Z,1019.4
2022-10-17T09:19:04.311Z,1019.4
2022-10-17T09:20:20.488Z,1019.4
2022-10-17T09:21:36.684Z,1019.4
2022-10-17T09:22:52.875Z,1019.4
2022-10-17T09:24:09.064Z,1019.4
2022-10-17T09:25:25.252Z,1019.4
2022-10-17T09:26:40.439Z,1019.4
2022-10-17T09:27:56.639Z,1019.4
2022-10-17T09:29:12.819Z,1019.4
2022-10-17T09:30:28.951Z,1019.4
2022-10-17T09:31:45.193Z,1019.4
2022-10-17T09:33:01.393Z,1019.4
2022-10-17T09:34:17.571Z,1019.3
2022-10-17T09:35:33.769Z,1019.4
2022-10-17T09:36:49.955Z,1019.4
2022-10-17T09:38:06.128Z,1019.4
2022-10-17T09:39:22.327Z,1019.3
2022-10-17T09:40:38.512Z,1019.3
2022-10-17T09:41:54.628Z,1019.3
2022-10-17T09:43:09.841Z,1019.3
2022-10-17T09:44:26.092Z,1019.3
2022-10-17T09:45:42.277Z,1019.3
2022-10-17T09:46:58.467Z,1019.2
2022-10-17T09:48:14.650Z,1019.2
2022-10-17T09:49:30.844Z,1019.2
2022-10-17T09:50:47.013Z,1019.2
2022-10-17T09:52:03.157Z,1019.2
2022-10-17T09:53:19.325Z,1019.2
2022-10-17T09:54:35.584Z,1019.3
2022-10-17T09:55:51.766Z,1019.2
2022-10-17T09:57:07.961Z,1019.2
2022-10-17T09:58:24.150Z,1019.2
2022-10-17T09:59:39.290Z,1019.2
2022-10-17T10:00:55.538Z,1019.2
2022-10-17T10:02:11.723Z,1019.2
2022-10-17T10:03:27.912Z,1019.1
2022-10-17T10:04:44.037Z,1019.2
2022-10-17T10:06:00.288Z,1019.2
2022-10-17T10:07:16.466Z,1019.2
2022-10-17T10:08:32.599Z,1019.1
2022-10-17T10:09:48.856Z,1019.2
2022-10-17T10:11:04.969Z,1019.2
2022-10-17T10:12:21.228Z,1019.2
2022-10-17T10:13:37.341Z,1019.1
2022-10-17T10:14:53.532Z,1019.2
2022-10-17T10:16:08.792Z,1019.1
2022-10-17T10:17:24.981Z,1019.1
2022-10-17T10:18:41.177Z,1019.1
2022-10-17T10:19:57.288Z,1019.2
2022-10-17T10:21:13.539Z,1019.2
2022-10-17T10:22:29.730Z,1019.2
2022-10-17T10:23:45.847Z,1019.2
2022-10-17T10:25:02.036Z,1019.2
2022-10-17T10:26:18.293Z,1019.2
2022-10-17T10:27:34.484Z,1019.2
2022-10-17T10:28:50.668Z,1019.1
2022-10-17T10:30:06.797Z,1019.2
2022-10-17T10:31:23.052Z,1019.2
2022-10-17T10:32:38.242Z,1019.1
2022-10-17T10:33:54.362Z,1019.1
2022-10-17T10:35:10.627Z,1019.1
2022-10-17T10:36:26.805Z,1019.2
2022-10-17T10:37:42.993Z,1019.1
2022-10-17T10:38:59.187Z,1019.1
2022-10-17T10:40:15.370Z,1019.2
2022-10-17T10:41:31.567Z,1019.1
2022-10-17T10:42:47.749Z,1019.2
2022-10-17T10:44:03.873Z,1019.1
2022-10-17T10:45:20.057Z,1019.1
2022-10-17T10:46:36.245Z,1019.1
2022-10-17T10:47:52.500Z,1019
2022-10-17T10:49:07.702Z,1019.1
2022-10-17T10:50:23.897Z,1019.1
2022-10-17T10:51:40.070Z,1019
2022-10-17T10:52:56.201Z,1019.1
2022-10-17T10:54:12.444Z,1019
2022-10-17T10:55:28.649Z,1019
2022-10-17T10:56:43.764Z,1019
2022-10-17T10:58:00.033Z,1019
2022-10-17T10:59:16.149Z,1019.1
2022-10-17T11:00:32.419Z,1019
2022-10-17T11:01:48.598Z,1019.1
2022-10-17T11:03:04.777Z,1019
2022-10-17T11:04:20.899Z,1019
2022-10-17T11:05:37.162Z,1019
2022-10-17T11:06:53.267Z,1019
2022-10-17T11:08:09.458Z,1019
2022-10-17T11:09:25.717Z,1019
2022-10-17T11:10:41.914Z,1019
2022-10-17T11:11:58.028Z,1019
2022-10-17T11:13:13.220Z,1018.9
2022-10-17T11:14:29.482Z,1018.9
2022-10-17T11:15:45.677Z,1018.9
2022-10-17T11:17:01.853Z,1018.9
2022-10-17T11:18:18.042Z,1018.9
2022-10-17T11:19:34.243Z,1018.9
2022-10-17T11:20:50.343Z,1018.8
2022-10-17T11:22:06.604Z,1018.8
2022-10-17T11:23:22.712Z,1018.8
2022-10-17T11:24:38.901Z,1018.7
2022-10-17T11:25:55.163Z,1018.8
2022-10-17T11:27:11.350Z,1018.8
2022-10-17T11:28:27.543Z,1018.8
2022-10-17T11:29:42.742Z,1018.7
2022-10-17T11:30:58.941Z,1018.6
2022-10-17T11:32:15.038Z,1018.7
2022-10-17T11:33:31.226Z,1018.6
2022-10-17T11:34:47.499Z,1018.6
2022-10-17T11:36:03.695Z,1018.6
2022-10-17T11:37:19.879Z,1018.6
2022-10-17T11:38:36.057Z,1018.6
2022-10-17T11:39:52.254Z,1018.6
2022-10-17T11:41:08.441Z,1018.6
2022-10-17T11:42:24.616Z,1018.5
2022-10-17T11:43:40.816Z,1018.6
2022-10-17T11:44:56.915Z,1018.5
2022-10-17T11:46:12.118Z,1018.5
2022-10-17T11:47:28.403Z,1018.6
2022-10-17T11:48:44.586Z,1018.6
2022-10-17T11:50:00.761Z,1018.7
2022-10-17T11:51:16.949Z,1018.6
2022-10-17T11:52:33.051Z,1018.6
2022-10-17T11:53:49.334Z,1018.6
2022-10-17T11:55:05.511Z,1018.5
2022-10-17T11:56:21.703Z,1018.4
2022-10-17T11:57:37.901Z,1018.5
2022-10-17T11:58:54.079Z,1018.4
2022-10-17T12:00:10.275Z,1018.4
2022-10-17T12:01:26.451Z,1018.4
2022-10-17T12:02:41.656Z,1018.4
2022-10-17T12:03:57.846Z,1018.4
2022-10-17T12:05:14.038Z,1018.4
2022-10-17T12:06:30.212Z,1018.4
2022-10-17T12:07:46.397Z,1018.4
2022-10-17T12:09:02.511Z,1018.4
2022-10-17T12:10:18.785Z,1018.3
2022-10-17T12:11:34.976Z,1018.4
2022-10-17T12:12:51.153Z,1018.4
2022-10-17T12:14:07.246Z,1018.3
2022-10-17T12:15:23.447Z,1018.4
2022-10-17T12:16:39.626Z,1018.3
2022-10-17T12:17:55.901Z,1018.3
2022-10-17T12:19:11.098Z,1018.4
2022-10-17T12:20:27.302Z,1018.3
2022-10-17T12:21:43.477Z,1018.3
2022-10-17T12:22:59.664Z,1018.3
2022-10-17T12:24:15.771Z,1018.3
2022-10-17T12:25:32.045Z,1018.4
2022-10-17T12:26:48.236Z,1018.3
2022-10-17T12:28:04.326Z,1018.2
2022-10-17T12:29:20.618Z,1018.3
2022-10-17T12:30:36.703Z,1018.3
2022-10-17T12:31:52.890Z,1018.3
2022-10-17T12:33:09.177Z,1018.3
2022-10-17T12:34:25.271Z,1018.3
2022-10-17T12:35:40.559Z,1018.4
2022-10-17T12:36:56.753Z,1018.3
2022-10-17T12:38:12.938Z,1018.4
2022-10-17T12:39:29.024Z,1018.4
2022-10-17T12:40:45.305Z,1018.5
2022-10-17T12:42:01.410Z,1018.5
2022-10-17T12:43:17.692Z,1018.4
2022-10-17T12:44:33.780Z,1018.3
2022-10-17T12:45:50.057Z,1018.4
2022-10-17T12:47:06.247Z,1018.3
2022-10-17T12:48:22.435Z,1018.3
2022-10-17T12:49:38.527Z,1018.3
2022-10-17T12:50:54.805Z,1018.3
2022-10-17T12:52:09.904Z,1018.3
2022-10-17T12:53:26.097Z,1018.3
2022-10-17T12:54:42.295Z,1018.4
2022-10-17T12:55:58.578Z,1018.4
2022-10-17T12:57:14.771Z,1018.4
2022-10-17T12:58:30.958Z,1018.4
2022-10-17T12:59:47.000Z,1018.4
2022-10-17T13:01:03.330Z,1018.4
2022-10-17T13:02:19.411Z,1018.4
2022-10-17T13:03:35.694Z,1018.4
2022-10-17T13:04:51.887Z,1018.4
2022-10-17T13:06:07.965Z,1018.3
2022-10-17T13:07:24.163Z,1018.2
2022-10-17T13:08:39.461Z,1018.3
2022-10-17T13:09:55.659Z,1018.2
2022-10-17T13:11:11.834Z,1018.3
2022-10-17T13:12:28.030Z,1018.3
2022-10-17T13:13:44.216Z,1018.2
2022-10-17T13:15:00.398Z,1018.3
2022-10-17T13:16:16.590Z,1018.2
2022-10-17T13:17:32.678Z,1018.2
2022-10-17T13:18:48.959Z,1018.2
2022-10-17T13:20:05.154Z,1018.2
2022-10-17T13:21:21.333Z,1018.2
2022-10-17T13:22:37.424Z,1018.2
2022-10-17T13:23:53.599Z,1018.3
2022-10-17T13:25:08.819Z,1018.3
2022-10-17T13:26:25.100Z,1018.3
2022-10-17T13:27:41.179Z,1018.2
2022-10-17T13:28:57.485Z,1018.2
2022-10-17T13:30:13.554Z,1018.2
2022-10-17T13:31:29.751Z,1018.2
2022-10-17T13:32:45.930Z,1018.2
2022-10-17T13:34:02.225Z,1018.2
2022-10-17T13:35:18.426Z,1018.3
2022-10-17T13:36:34.614Z,1018.2
2022-10-17T13:37:50.685Z,1018.3
2022-10-17T13:39:06.987Z,1018.3
2022-10-17T13:40:23.058Z,1018.2
2022-10-17T13:41:38.374Z,1018.3
2022-10-17T13:42:54.555Z,1018.3
2022-10-17T13:44:10.637Z,1018.3
2022-10-17T13:45:26.937Z,1018.2
2022-10-17T13:46:43.118Z,1018.3
2022-10-17T13:47:59.317Z,1018.3
2022-10-17T13:49:15.389Z,1018.3
2022-10-17T13:50:31.675Z,1018.3
2022-10-17T13:51:47.875Z,1018.3
2022-10-17T13:53:04.063Z,1018.3
2022-10-17T13:54:20.236Z,1018.2
2022-10-17T13:55:36.432Z,1018.2
2022-10-17T13:56:52.615Z,1018.3
2022-10-17T13:58:07.815Z,1018.3
2022-10-17T13:59:23.902Z,1018.3
2022-10-17T14:00:40.094Z,1018.3
2022-10-17T14:01:56.395Z,1018.3
2022-10-17T14:03:12.568Z,1018.3
2022-10-17T14:04:28.763Z,1018.3
2022-10-17T14:05:44.948Z,1018.3
2022-10-17T14:07:01.027Z,1018.3
2022-10-17T14:08:17.199Z,1018.3
2022-10-17T14:09:33.387Z,1018.3
2022-10-17T14:10:49.580Z,1018.4
2022-10-17T14:12:05.879Z,1018.3
2022-10-17T14:13:22.079Z,1018.4
2022-10-17T14:14:37.267Z,1018.4
2022-10-17T14:15:53.470Z,1018.4
2022-10-17T14:17:09.658Z,1018.4
2022-10-17T14:18:25.719Z,1018.4
2022-10-17T14:19:41.897Z,1018.4
2022-10-17T14:20:58.210Z,1018.4
2022-10-17T14:23:30.581Z,1018.4
2022-10-17T14:24:46.771Z,1018.4
2022-10-17T14:26:02.847Z,1018.4
2022-10-17T14:27:19.156Z,1018.4
2022-10-17T14:28:35.333Z,1018.4
2022-10-17T14:29:51.528Z,1018.4
2022-10-17T14:31:06.597Z,1018.4
2022-10-17T14:32:22.926Z,1018.5
2022-10-17T14:33:38.976Z,1018.5
2022-10-17T14:34:55.176Z,1018.4
2022-10-17T14:36:11.469Z,1018.4
2022-10-17T14:37:27.665Z,1018.5
2022-10-17T14:38:43.850Z,1018.5
2022-10-17T14:40:00.043Z,1018.5
2022-10-17T14:41:16.000Z,1018.5
2022-10-17T14:42:32.415Z,1018.5
2022-10-17T14:43:48.604Z,1018.5
2022-10-17T14:45:04.790Z,1018.5
2022-10-17T14:46:20.986Z,1018.5
2022-10-17T14:47:36.177Z,1018.6
2022-10-17T14:48:52.253Z,1018.6
2022-10-17T14:50:08.425Z,1018.6
2022-10-17T14:51:24.739Z,1018.6
2022-10-17T14:52:40.923Z,1018.6
2022-10-17T14:53:57.115Z,1018.6
2022-10-17T14:55:13.307Z,1018.5
2022-10-17T14:56:29.371Z,1018.5
2022-10-17T14:57:45.678Z,1018.5
2022-10-17T14:59:01.863Z,1018.5
2022-10-17T15:00:17.927Z,1018.5
2022-10-17T15:01:34.249Z,1018.6
2022-10-17T15:02:50.430Z,1018.6
2022-10-17T15:04:05.509Z,1018.5
2022-10-17T15:05:21.818Z,1018.6
2022-10-17T15:06:38.000Z,1018.6
2022-10-17T15:07:54.195Z,1018.6
2022-10-17T15:09:10.380Z,1018.6
2022-10-17T15:10:26.578Z,1018.6
2022-10-17T15:11:41.640Z,1018.6
2022-10-17T15:12:57.000Z,1018.6
2022-10-17T15:14:14.145Z,1018.6
2022-10-17T15:15:30.349Z,1018.5
2022-10-17T15:16:46.391Z,1018.6
2022-10-17T15:18:02.718Z,1018.6
2022-10-17T15:19:18.766Z,1018.6
2022-10-17T15:20:35.089Z,1018.6
2022-10-17T15:21:51.281Z,1018.6
2022-10-17T15:23:07.463Z,1018.6
2022-10-17T15:24:23.657Z,1018.6
2022-10-17T15:25:39.829Z,1018.5
2022-10-17T15:26:55.897Z,1018.5
2022-10-17T15:28:11.234Z,1018.6
2022-10-17T15:29:27.408Z,1018.5
2022-10-17T15:30:43.599Z,1018.6
2022-10-17T15:31:59.799Z,1018.6
2022-10-17T15:33:15.970Z,1018.6
2022-10-17T15:34:32.032Z,1018.6
2022-10-17T15:35:48.355Z,1018.6
2022-10-17T15:37:04.540Z,1018.6
2022-10-17T15:38:20.595Z,1018.7
2022-10-17T15:39:36.916Z,1018.7
2022-10-17T15:40:53.107Z,1018.7
2022-10-17T15:42:09.292Z,1018.7
2022-10-17T15:43:25.477Z,1018.7
2022-10-17T15:44:41.667Z,1018.7
2022-10-17T15:45:56.862Z,1018.7
2022-10-17T15:47:12.907Z,1018.7
2022-10-17T15:48:29.241Z,1018.7
2022-10-17T15:49:45.289Z,1018.7
2022-10-17T15:51:01.477Z,1018.8
2022-10-17T15:52:17.794Z,1018.7
2022-10-17T15:53:34.000Z,1018.8
2022-10-17T15:54:50.030Z,1018.9
2022-10-17T15:56:06.216Z,1018.9